Terminal Aerodrome Forecast
Issued by NWS

Home | Current Version | Previous Version | Text Only | Print | Product List | Glossary On
Versions: 1 2 3 4 5 6 7 8 9 10 11 12 13 14 15
000
FTUS42 KGSP 300521
TAFAND
TAF
KAND 300521Z 3006/3106 05003KT P6SM FEW250
     FM301100 00000KT 4SM BR BKN035
     FM301300 00000KT 6SM BR BKN045
     FM301500 00000KT P6SM BKN030
     FM301700 00000KT P6SM BKN035
     FM302000 14003KT P6SM SCT045=

USA.gov is the U.S. government's official web portal to all federal, state and local government web resources and services.